sensor_id;sensor_type;location;lat;lon;timestamp;pressure;altitude;pressure_sealevel;temperature;humidity
53715;BME280;39608;55.630;37.864;2023-07-08T08:29:03;99403.31;;;23.02;57.76
53715;BME280;39608;55.630;37.864;2023-07-08T08:34:05;99399.28;;;22.96;57.75
53715;BME280;39608;55.630;37.864;2023-07-08T08:39:07;99397.72;;;22.95;58.34
53715;BME280;39608;55.630;37.864;2023-07-08T08:44:14;99401.66;;;22.94;57.68
53715;BME280;39608;55.630;37.864;2023-07-08T08:49:24;99400.06;;;22.93;58.52
53715;BME280;39608;55.630;37.864;2023-07-08T08:54:29;99416.25;;;22.94;58.16
53715;BME280;39608;55.630;37.864;2023-07-08T08:59:38;99403.25;;;22.95;57.94
53715;BME280;39608;55.630;37.864;2023-07-08T09:04:44;99401.53;;;22.79;58.11
53715;BME280;39608;55.630;37.864;2023-07-08T09:09:51;99394.84;;;23.29;57.68
53715;BME280;39608;55.630;37.864;2023-07-08T09:14:58;99399.66;;;23.35;57.12
53715;BME280;39608;55.630;37.864;2023-07-08T09:20:09;99390.00;;;23.15;56.61
53715;BME280;39608;55.630;37.864;2023-07-08T09:25:24;99392.22;;;22.98;57.05
53715;BME280;39608;55.630;37.864;2023-07-08T09:30:27;99394.56;;;22.96;57.12
53715;BME280;39608;55.630;37.864;2023-07-08T09:35:38;99401.94;;;23.22;56.30
53715;BME280;39608;55.630;37.864;2023-07-08T09:40:46;99412.25;;;23.29;56.69
53715;BME280;39608;55.630;37.864;2023-07-08T09:45:51;99421.16;;;23.56;56.06
53715;BME280;39608;55.630;37.864;2023-07-08T09:50:54;99422.97;;;23.90;54.63
53715;BME280;39608;55.630;37.864;2023-07-08T09:55:59;99414.66;;;23.90;54.64
53715;BME280;39608;55.630;37.864;2023-07-08T10:01:10;99404.00;;;23.99;54.53
53715;BME280;39608;55.630;37.864;2023-07-08T10:06:16;99407.25;;;24.12;54.07
53715;BME280;39608;55.630;37.864;2023-07-08T10:11:23;99414.38;;;24.17;54.85
53715;BME280;39608;55.630;37.864;2023-07-08T10:16:30;99412.91;;;24.52;52.32
53715;BME280;39608;55.630;37.864;2023-07-08T10:21:37;99402.69;;;24.67;51.49
53715;BME280;39608;55.630;37.864;2023-07-08T10:26:45;99412.53;;;24.57;52.15
53715;BME280;39608;55.630;37.864;2023-07-08T10:31:55;99405.75;;;24.43;52.77
53715;BME280;39608;55.630;37.864;2023-07-08T10:37:07;99385.16;;;24.45;52.20
53715;BME280;39608;55.630;37.864;2023-07-08T10:42:19;99400.31;;;24.76;51.46
53715;BME280;39608;55.630;37.864;2023-07-08T10:47:37;99382.06;;;24.68;50.76
53715;BME280;39608;55.630;37.864;2023-07-08T10:52:51;99391.22;;;25.08;50.78
53715;BME280;39608;55.630;37.864;2023-07-08T10:58:12;99390.66;;;26.10;48.06
53715;BME280;39608;55.630;37.864;2023-07-08T11:03:58;99402.31;;;26.58;46.79
53715;BME280;39608;55.630;37.864;2023-07-08T11:09:04;99386.78;;;25.68;48.73
53715;BME280;39608;55.630;37.864;2023-07-08T11:14:10;99386.22;;;26.24;49.19
53715;BME280;39608;55.630;37.864;2023-07-08T11:19:17;99368.13;;;25.72;48.25
53715;BME280;39608;55.630;37.864;2023-07-08T11:24:26;99375.69;;;26.64;46.72
53715;BME280;39608;55.630;37.864;2023-07-08T11:29:36;99389.81;;;27.78;44.60
53715;BME280;39608;55.630;37.864;2023-07-08T11:34:41;99385.06;;;27.33;44.63
53715;BME280;39608;55.630;37.864;2023-07-08T11:39:47;99383.59;;;26.73;45.34
53715;BME280;39608;55.630;37.864;2023-07-08T11:44:56;99380.41;;;26.67;45.24
53715;BME280;39608;55.630;37.864;2023-07-08T11:50:00;99367.63;;;26.13;46.22
53715;BME280;39608;55.630;37.864;2023-07-08T11:55:23;99364.00;;;27.32;44.65
53715;BME280;39608;55.630;37.864;2023-07-08T12:00:31;99359.41;;;27.57;42.68
53715;BME280;39608;55.630;37.864;2023-07-08T12:05:37;99361.69;;;27.65;43.00
53715;BME280;39608;55.630;37.864;2023-07-08T12:10:46;99374.28;;;26.94;42.54
53715;BME280;39608;55.630;37.864;2023-07-08T12:15:49;99367.25;;;26.04;43.92
53715;BME280;39608;55.630;37.864;2023-07-08T12:20:55;99371.72;;;25.69;45.39
53715;BME280;39608;55.630;37.864;2023-07-08T12:25:58;99370.47;;;25.81;45.19
53715;BME280;39608;55.630;37.864;2023-07-08T12:31:00;99363.00;;;26.56;43.96
53715;BME280;39608;55.630;37.864;2023-07-08T12:36:04;99367.44;;;27.86;40.63
53715;BME280;39608;55.630;37.864;2023-07-08T12:41:11;99367.88;;;28.46;39.08
53715;BME280;39608;55.630;37.864;2023-07-08T12:46:15;99365.09;;;28.73;37.93
53715;BME280;39608;55.630;37.864;2023-07-08T12:51:24;99363.94;;;29.85;36.68
53715;BME280;39608;55.630;37.864;2023-07-08T12:56:26;99372.22;;;29.93;34.87
53715;BME280;39608;55.630;37.864;2023-07-08T13:01:30;99356.69;;;29.88;35.22
53715;BME280;39608;55.630;37.864;2023-07-08T13:06:35;99365.84;;;29.48;35.66
53715;BME280;39608;55.630;37.864;2023-07-08T13:11:41;99373.47;;;29.24;35.67
53715;BME280;39608;55.630;37.864;2023-07-08T13:16:43;99377.47;;;28.72;34.87
53715;BME280;39608;55.630;37.864;2023-07-08T13:21:47;99377.13;;;28.39;36.10
53715;BME280;39608;55.630;37.864;2023-07-08T13:26:49;99380.75;;;28.67;36.17
53715;BME280;39608;55.630;37.864;2023-07-08T13:32:02;99390.19;;;29.00;35.95
53715;BME280;39608;55.630;37.864;2023-07-08T13:37:10;99382.34;;;28.37;35.86
53715;BME280;39608;55.630;37.864;2023-07-08T13:42:14;99374.03;;;27.23;36.61
53715;BME280;39608;55.630;37.864;2023-07-08T13:47:21;99367.88;;;26.97;37.43
53715;BME280;39608;55.630;37.864;2023-07-08T13:52:25;99368.78;;;26.83;36.80
53715;BME280;39608;55.630;37.864;2023-07-08T13:57:32;99371.38;;;27.08;36.57
53715;BME280;39608;55.630;37.864;2023-07-08T14:02:34;99369.06;;;27.03;37.44
53715;BME280;39608;55.630;37.864;2023-07-08T14:07:38;99360.84;;;26.85;38.14
53715;BME280;39608;55.630;37.864;2023-07-08T14:12:40;99355.03;;;26.58;39.05
53715;BME280;39608;55.630;37.864;2023-07-08T14:17:42;99336.63;;;27.24;39.40
53715;BME280;39608;55.630;37.864;2023-07-08T14:22:46;99343.44;;;27.61;38.17
53715;BME280;39608;55.630;37.864;2023-07-08T14:27:48;99336.16;;;27.71;38.26
53715;BME280;39608;55.630;37.864;2023-07-08T14:32:50;99321.06;;;27.30;38.33
53715;BME280;39608;55.630;37.864;2023-07-08T14:37:54;99317.63;;;26.66;40.03
53715;BME280;39608;55.630;37.864;2023-07-08T14:42:59;99321.50;;;26.83;40.73
53715;BME280;39608;55.630;37.864;2023-07-08T14:48:01;99314.78;;;27.60;38.90
53715;BME280;39608;55.630;37.864;2023-07-08T14:53:05;99311.63;;;28.24;37.75
53715;BME280;39608;55.630;37.864;2023-07-08T14:58:09;99296.47;;;28.48;37.83
53715;BME280;39608;55.630;37.864;2023-07-08T15:03:17;99313.25;;;28.21;37.84
53715;BME280;39608;55.630;37.864;2023-07-08T15:08:21;99324.91;;;27.43;37.97
53715;BME280;39608;55.630;37.864;2023-07-08T15:13:26;99319.94;;;26.78;39.38
53715;BME280;39608;55.630;37.864;2023-07-08T15:18:30;99317.69;;;26.59;40.87
53715;BME280;39608;55.630;37.864;2023-07-08T15:23:35;99321.59;;;26.72;40.01
53715;BME280;39608;55.630;37.864;2023-07-08T15:28:40;99328.47;;;26.50;40.03
53715;BME280;39608;55.630;37.864;2023-07-08T15:33:48;99325.00;;;26.35;39.37
53715;BME280;39608;55.630;37.864;2023-07-08T15:38:51;99328.28;;;26.19;39.12
53715;BME280;39608;55.630;37.864;2023-07-08T15:43:54;99333.09;;;26.07;38.88
53715;BME280;39608;55.630;37.864;2023-07-08T15:48:57;99336.72;;;25.90;38.18
53715;BME280;39608;55.630;37.864;2023-07-08T15:54:00;99337.94;;;25.85;38.83
53715;BME280;39608;55.630;37.864;2023-07-08T15:59:03;99318.53;;;25.67;38.86
53715;BME280;39608;55.630;37.864;2023-07-08T16:04:07;99315.41;;;25.65;38.91
53715;BME280;39608;55.630;37.864;2023-07-08T16:09:13;99316.97;;;25.70;38.84
53715;BME280;39608;55.630;37.864;2023-07-08T16:14:16;99315.84;;;25.49;38.26
53715;BME280;39608;55.630;37.864;2023-07-08T16:19:18;99314.25;;;25.44;38.84
53715;BME280;39608;55.630;37.864;2023-07-08T16:24:22;99300.41;;;25.37;39.06
53715;BME280;39608;55.630;37.864;2023-07-08T16:29:25;99273.44;;;25.23;39.49
53715;BME280;39608;55.630;37.864;2023-07-08T16:34:28;99296.84;;;25.37;39.01
53715;BME280;39608;55.630;37.864;2023-07-08T16:39:32;99299.59;;;25.22;39.10
53715;BME280;39608;55.630;37.864;2023-07-08T16:44:34;99302.03;;;25.02;39.34
53715;BME280;39608;55.630;37.864;2023-07-08T16:49:36;99309.19;;;24.85;39.83
53715;BME280;39608;55.630;37.864;2023-07-08T16:54:39;99320.69;;;24.76;40.53
53715;BME280;39608;55.630;37.864;2023-07-08T16:59:42;99320.66;;;24.62;40.15
53715;BME280;39608;55.630;37.864;2023-07-08T17:04:44;99321.00;;;24.46;41.17
53715;BME280;39608;55.630;37.864;2023-07-08T17:09:48;99318.25;;;24.39;40.85
53715;BME280;39608;55.630;37.864;2023-07-08T17:14:50;99323.75;;;24.28;41.19
53715;BME280;39608;55.630;37.864;2023-07-08T17:19:52;99319.38;;;24.27;41.17
53715;BME280;39608;55.630;37.864;2023-07-08T17:24:55;99332.44;;;24.30;41.47
53715;BME280;39608;55.630;37.864;2023-07-08T17:29:57;99320.19;;;24.24;41.02
53715;BME280;39608;55.630;37.864;2023-07-08T17:34:59;99322.91;;;24.13;41.15
53715;BME280;39608;55.630;37.864;2023-07-08T17:40:04;99319.75;;;24.11;41.58
53715;BME280;39608;55.630;37.864;2023-07-08T17:45:09;99313.34;;;23.89;42.29
53715;BME280;39608;55.630;37.864;2023-07-08T17:50:18;99324.44;;;23.96;41.97
53715;BME280;39608;55.630;37.864;2023-07-08T17:55:23;99323.16;;;23.75;42.32
53715;BME280;39608;55.630;37.864;2023-07-08T18:00:26;99327.09;;;23.67;42.87
53715;BME280;39608;55.630;37.864;2023-07-08T18:05:30;99325.44;;;23.55;43.20
53715;BME280;39608;55.630;37.864;2023-07-08T18:10:35;99324.63;;;23.51;43.79
53715;BME280;39608;55.630;37.864;2023-07-08T18:15:38;99310.28;;;23.35;44.32
53715;BME280;39608;55.630;37.864;2023-07-08T18:20:46;99303.94;;;23.31;44.73
53715;BME280;39608;55.630;37.864;2023-07-08T18:25:52;99314.97;;;23.23;44.57
53715;BME280;39608;55.630;37.864;2023-07-08T18:30:54;99299.09;;;23.13;44.84
53715;BME280;39608;55.630;37.864;2023-07-08T18:35:56;99294.63;;;23.01;44.48
53715;BME280;39608;55.630;37.864;2023-07-08T18:41:00;99299.81;;;23.03;45.61
53715;BME280;39608;55.630;37.864;2023-07-08T18:46:02;99292.94;;;22.86;45.30
53715;BME280;39608;55.630;37.864;2023-07-08T18:51:11;99289.34;;;22.82;45.79
53715;BME280;39608;55.630;37.864;2023-07-08T18:56:17;99289.34;;;22.78;45.76
53715;BME280;39608;55.630;37.864;2023-07-08T19:01:22;99290.84;;;22.68;46.80
53715;BME280;39608;55.630;37.864;2023-07-08T19:06:25;99292.00;;;22.67;46.63
53715;BME280;39608;55.630;37.864;2023-07-08T19:11:28;99291.25;;;22.70;47.23
53715;BME280;39608;55.630;37.864;2023-07-08T19:16:30;99297.88;;;22.62;47.32
53715;BME280;39608;55.630;37.864;2023-07-08T19:21:33;99300.69;;;22.66;47.33
53715;BME280;39608;55.630;37.864;2023-07-08T19:26:36;99294.66;;;22.53;47.92
53715;BME280;39608;55.630;37.864;2023-07-08T19:31:40;99289.03;;;22.42;48.58
53715;BME280;39608;55.630;37.864;2023-07-08T19:36:44;99302.31;;;22.29;49.04
53715;BME280;39608;55.630;37.864;2023-07-08T19:41:47;99295.44;;;22.16;49.54
53715;BME280;39608;55.630;37.864;2023-07-08T19:46:49;99288.56;;;21.99;50.60
53715;BME280;39608;55.630;37.864;2023-07-08T19:51:51;99290.47;;;21.91;50.44
53715;BME280;39608;55.630;37.864;2023-07-08T19:56:55;99295.25;;;21.98;50.89
53715;BME280;39608;55.630;37.864;2023-07-08T20:01:58;99293.63;;;21.93;51.07
53715;BME280;39608;55.630;37.864;2023-07-08T20:07:02;99291.78;;;22.04;51.54
53715;BME280;39608;55.630;37.864;2023-07-08T20:12:11;99288.22;;;22.04;52.27
53715;BME280;39608;55.630;37.864;2023-07-08T20:17:21;99279.69;;;21.82;52.07
53715;BME280;39608;55.630;37.864;2023-07-08T20:22:23;99279.22;;;21.77;52.41
53715;BME280;39608;55.630;37.864;2023-07-08T20:27:27;99267.66;;;21.64;52.08
53715;BME280;39608;55.630;37.864;2023-07-08T20:32:29;99264.72;;;21.83;52.53
53715;BME280;39608;55.630;37.864;2023-07-08T20:37:31;99257.38;;;21.61;53.59
53715;BME280;39608;55.630;37.864;2023-07-08T20:42:34;99253.53;;;21.69;53.46
53715;BME280;39608;55.630;37.864;2023-07-08T20:47:36;99253.38;;;21.55;53.96
53715;BME280;39608;55.630;37.864;2023-07-08T20:52:39;99259.13;;;21.46;54.21
53715;BME280;39608;55.630;37.864;2023-07-08T20:57:42;99261.47;;;21.74;52.99
53715;BME280;39608;55.630;37.864;2023-07-08T21:02:45;99252.00;;;21.72;52.30
53715;BME280;39608;55.630;37.864;2023-07-08T21:07:47;99259.72;;;21.96;52.20
53715;BME280;39608;55.630;37.864;2023-07-08T21:12:51;99258.03;;;21.84;53.06
53715;BME280;39608;55.630;37.864;2023-07-08T21:17:53;99248.03;;;21.73;53.28
53715;BME280;39608;55.630;37.864;2023-07-08T21:22:56;99251.81;;;21.95;53.64
53715;BME280;39608;55.630;37.864;2023-07-08T21:27:59;99248.78;;;21.66;55.57
53715;BME280;39608;55.630;37.864;2023-07-08T21:33:01;99252.13;;;21.86;54.86
53715;BME280;39608;55.630;37.864;2023-07-08T21:38:03;99254.00;;;21.75;55.25
53715;BME280;39608;55.630;37.864;2023-07-08T21:43:12;99255.16;;;21.74;55.77
53715;BME280;39608;55.630;37.864;2023-07-08T21:48:15;99257.66;;;21.52;55.33
53715;BME280;39608;55.630;37.864;2023-07-08T21:53:19;99261.38;;;21.36;55.79
53715;BME280;39608;55.630;37.864;2023-07-08T21:58:24;99257.97;;;21.47;55.58
53715;BME280;39608;55.630;37.864;2023-07-08T22:03:27;99254.34;;;21.43;54.81
53715;BME280;39608;55.630;37.864;2023-07-08T22:08:29;99257.88;;;21.40;54.16
53715;BME280;39608;55.630;37.864;2023-07-08T22:13:35;99264.03;;;21.29;54.59
53715;BME280;39608;55.630;37.864;2023-07-08T22:18:38;99260.22;;;21.11;55.12
53715;BME280;39608;55.630;37.864;2023-07-08T22:23:44;99255.53;;;21.11;54.94
53715;BME280;39608;55.630;37.864;2023-07-08T22:28:48;99255.09;;;21.09;54.77
53715;BME280;39608;55.630;37.864;2023-07-08T22:33:50;99256.16;;;21.01;55.30
53715;BME280;39608;55.630;37.864;2023-07-08T22:39:00;99256.97;;;21.01;54.96
53715;BME280;39608;55.630;37.864;2023-07-08T22:44:04;99259.25;;;20.96;55.55
53715;BME280;39608;55.630;37.864;2023-07-08T22:49:06;99254.44;;;20.93;55.22
53715;BME280;39608;55.630;37.864;2023-07-08T22:54:12;99243.88;;;20.95;55.55
53715;BME280;39608;55.630;37.864;2023-07-08T22:59:16;99249.22;;;20.84;54.67
53715;BME280;39608;55.630;37.864;2023-07-08T23:04:18;99260.03;;;20.70;54.83
53715;BME280;39608;55.630;37.864;2023-07-08T23:09:20;99248.91;;;20.66;54.54
53715;BME280;39608;55.630;37.864;2023-07-08T23:14:23;99263.78;;;20.61;55.01
53715;BME280;39608;55.630;37.864;2023-07-08T23:19:25;99268.00;;;20.55;54.25
53715;BME280;39608;55.630;37.864;2023-07-08T23:24:27;99266.00;;;20.52;54.11
53715;BME280;39608;55.630;37.864;2023-07-08T23:29:31;99260.47;;;20.52;54.17
53715;BME280;39608;55.630;37.864;2023-07-08T23:34:33;99260.72;;;20.43;53.59
53715;BME280;39608;55.630;37.864;2023-07-08T23:39:35;99256.25;;;20.35;54.02
53715;BME280;39608;55.630;37.864;2023-07-08T23:44:38;99249.53;;;20.32;54.71
53715;BME280;39608;55.630;37.864;2023-07-08T23:49:40;99249.13;;;20.30;54.77
53715;BME280;39608;55.630;37.864;2023-07-08T23:54:43;99244.88;;;20.37;54.91
53715;BME280;39608;55.630;37.864;2023-07-08T23:59:49;99243.06;;;20.44;55.34
